Time;durP1;ratioP1;P1;durP2;ratioP2;P2;SDS_P1;SDS_P2;PMS_P1;PMS_P2;Temp;Humidity;BMP_temperature;BMP_pressure;BME280_temperature;BME280_humidity;BME280_pressure;Samples;Min_cycle;Max_cycle;Signal;HPM_P1;HPM_P2
2022/10/25 00:01:27;;;;;;;;;8.75;7.50;;;;;30.08;100.00;101343.06;5058915;28;51272;-48
2022/10/25 00:04:13;;;;;;;;;10.75;9.75;;;;;30.03;100.00;101341.66;5058417;28;51165;-48
2022/10/25 00:06:58;;;;;;;;;8.00;6.75;;;;;30.07;100.00;101340.47;5057057;28;51212;-46
2022/10/25 00:09:42;;;;;;;;;10.75;7.00;;;;;30.03;100.00;101342.56;5054948;28;51169;-47
2022/10/25 00:12:27;;;;;;;;;9.75;8.00;;;;;29.98;100.00;101328.31;5057579;28;51106;-48
2022/10/25 00:15:13;;;;;;;;;7.75;6.75;;;;;29.95;100.00;101328.53;5055625;28;51426;-46
2022/10/25 00:17:58;;;;;;;;;7.75;7.50;;;;;29.91;100.00;101324.25;5058325;28;51058;-47
2022/10/25 00:20:42;;;;;;;;;7.00;7.00;;;;;29.90;100.00;101309.66;5055096;28;51046;-46
2022/10/25 00:23:26;;;;;;;;;15.25;9.25;;;;;29.92;100.00;101309.56;5053197;28;51477;-47
2022/10/25 00:26:11;;;;;;;;;12.25;9.75;;;;;29.90;100.00;101301.44;5057457;28;51528;-47
2022/10/25 00:28:56;;;;;;;;;10.00;8.25;;;;;29.90;100.00;101287.72;5059801;28;51165;-45
2022/10/25 00:31:40;;;;;;;;;8.75;7.75;;;;;29.81;100.00;101270.13;5062641;28;51121;-46
2022/10/25 00:34:25;;;;;;;;;11.75;8.00;;;;;29.88;100.00;101277.84;5060642;28;51141;-46
2022/10/25 00:37:09;;;;;;;;;7.75;7.75;;;;;29.76;100.00;101253.13;5061513;27;51165;-48
2022/10/25 00:39:54;;;;;;;;;7.00;7.00;;;;;29.87;100.00;101267.88;5057442;28;51094;-45
2022/10/25 00:42:38;;;;;;;;;7.75;6.25;;;;;29.88;100.00;101261.41;5059488;28;51175;-46
2022/10/25 00:45:25;;;;;;;;;9.75;8.25;;;;;29.90;100.00;101253.94;5061900;28;51217;-47
2022/10/25 00:48:11;;;;;;;;;11.75;9.75;;;;;29.91;100.00;101253.78;5062415;28;51119;-47
2022/10/25 00:50:56;;;;;;;;;11.00;7.00;;;;;29.91;100.00;101247.44;5059825;28;51281;-46
2022/10/25 00:53:41;;;;;;;;;9.25;8.25;;;;;29.94;100.00;101248.13;5059814;28;51134;-47
2022/10/25 00:56:28;;;;;;;;;15.50;8.50;;;;;29.96;100.00;101240.66;5060441;28;51103;-46
2022/10/25 00:59:16;;;;;;;;;7.50;3.75;;;;;29.92;100.00;101239.09;5061347;28;51425;-45
2022/10/25 01:02:01;;;;;;;;;10.50;8.75;;;;;29.92;100.00;101243.72;5060320;28;51134;-46
2022/10/25 01:04:45;;;;;;;;;10.00;8.75;;;;;29.96;100.00;101246.13;5062074;28;51465;-47
2022/10/25 01:07:30;;;;;;;;;6.50;4.50;;;;;29.96;100.00;101234.25;5058516;28;51237;-46
2022/10/25 01:10:15;;;;;;;;;9.50;8.50;;;;;29.96;100.00;101226.03;5061566;28;51028;-45
2022/10/25 01:13:02;;;;;;;;;10.00;7.75;;;;;29.96;100.00;101229.66;5053716;28;51907;-46
2022/10/25 01:16:19;;;;;;;;;9.75;7.00;;;;;29.96;100.00;101228.78;5058990;28;52052;-47
2022/10/25 01:19:23;;;;;;;;;12.50;8.50;;;;;29.99;100.00;101234.03;5060508;28;51207;-47
2022/10/25 01:22:22;;;;;;;;;9.00;9.00;;;;;30.02;100.00;101233.81;5053478;28;51079;-46
2022/10/25 01:25:37;;;;;;;;;10.00;8.50;;;;;30.06;100.00;101232.53;5060066;28;51359;-46
2022/10/25 01:28:40;;;;;;;;;17.00;10.75;;;;;30.08;100.00;101221.47;5060805;27;51208;-48
2022/10/25 01:31:48;;;;;;;;;8.75;8.75;;;;;30.08;100.00;101221.47;5053408;28;51402;-47
2022/10/25 01:34:41;;;;;;;;;13.00;10.50;;;;;30.08;100.00;101216.84;5053306;28;51078;-45
2022/10/25 01:37:32;;;;;;;;;12.75;8.25;;;;;30.08;100.00;101211.34;5060748;28;51150;-47
2022/10/25 01:40:30;;;;;;;;;11.00;9.75;;;;;30.01;100.00;101198.22;5060124;28;51083;-46
2022/10/25 01:43:33;;;;;;;;;11.25;8.00;;;;;30.02;100.00;101203.63;5059621;28;51050;-45
2022/10/25 01:46:17;;;;;;;;;10.50;7.50;;;;;30.07;100.00;101217.84;5058567;28;51141;-45
2022/10/25 01:49:08;;;;;;;;;7.75;7.00;;;;;30.07;100.00;101208.75;5061293;28;50955;-46
2022/10/25 01:51:53;;;;;;;;;9.25;7.25;;;;;30.04;100.00;101201.63;5055142;28;51426;-45
2022/10/25 01:54:38;;;;;;;;;8.50;7.75;;;;;30.04;100.00;101203.50;5060304;28;51189;-47
2022/10/25 01:57:59;;;;;;;;;9.75;8.00;;;;;30.04;100.00;101203.50;5058239;28;51188;-46
2022/10/25 02:01:12;;;;;;;;;8.25;7.00;;;;;30.04;100.00;101195.25;5060306;28;51045;-48
2022/10/25 02:04:06;;;;;;;;;15.75;9.00;;;;;30.03;100.00;101191.66;5054447;28;51047;-47
2022/10/25 02:07:00;;;;;;;;;11.75;8.50;;;;;29.92;100.00;101165.03;5058874;28;51042;-46
2022/10/25 02:10:03;;;;;;;;;11.25;8.00;;;;;30.06;100.00;101183.16;5060053;28;51470;-47
2022/10/25 02:12:52;;;;;;;;;8.50;7.75;;;;;30.05;100.00;101180.53;5059280;28;51289;-47
2022/10/25 02:15:39;;;;;;;;;13.00;10.00;;;;;30.07;100.00;101173.94;5058450;28;51179;-48
2022/10/25 02:18:28;;;;;;;;;9.00;6.00;;;;;30.06;100.00;101174.94;5055092;28;51095;-47
2022/10/25 02:21:14;;;;;;;;;9.25;8.25;;;;;30.05;100.00;101170.47;5057508;27;51142;-47
2022/10/25 02:24:02;;;;;;;;;12.25;10.50;;;;;30.01;100.00;101160.72;5059480;28;51275;-46
2022/10/25 02:26:48;;;;;;;;;11.25;10.00;;;;;30.03;100.00;101169.69;5070914;27;51180;-46
2022/10/25 02:29:34;;;;;;;;;14.75;11.50;;;;;30.02;100.00;101172.56;5059752;27;51242;-46
2022/10/25 02:32:19;;;;;;;;;16.75;11.50;;;;;30.02;100.00;101173.44;5058842;28;51156;-47
2022/10/25 02:35:04;;;;;;;;;13.00;10.00;;;;;30.01;100.00;101171.69;5058792;28;51471;-47
2022/10/25 02:37:49;;;;;;;;;9.25;9.00;;;;;29.99;100.00;101169.09;5058876;28;51184;-46
2022/10/25 02:40:34;;;;;;;;;12.25;9.50;;;;;29.99;100.00;101173.69;5053604;28;50983;-46
2022/10/25 02:43:19;;;;;;;;;13.25;9.25;;;;;29.98;100.00;101170.06;5051822;28;51471;-45
2022/10/25 02:46:06;;;;;;;;;13.00;8.75;;;;;29.97;100.00;101168.31;5051263;28;51167;-46
2022/10/25 02:48:51;;;;;;;;;12.25;8.50;;;;;29.95;100.00;101169.41;5058802;28;51369;-47
2022/10/25 02:51:36;;;;;;;;;14.00;10.00;;;;;29.94;100.00;101168.56;5058870;28;51118;-45
2022/10/25 02:54:21;;;;;;;;;11.00;8.00;;;;;29.89;100.00;101156.16;5052147;28;51011;-48
2022/10/25 02:57:06;;;;;;;;;9.75;8.50;;;;;29.90;100.00;101160.66;5058041;28;51279;-48
2022/10/25 02:59:50;;;;;;;;;10.50;7.50;;;;;29.93;100.00;101164.06;5059213;28;51511;-47
2022/10/25 03:02:35;;;;;;;;;11.75;7.50;;;;;29.91;100.00;101167.91;5059975;28;51228;-47
2022/10/25 03:05:19;;;;;;;;;11.25;9.00;;;;;29.87;100.00;101164.53;5057415;28;51170;-46
2022/10/25 03:08:03;;;;;;;;;8.75;6.50;;;;;29.83;100.00;101158.41;5059987;28;51200;-47
2022/10/25 03:10:48;;;;;;;;;10.50;9.25;;;;;29.76;100.00;101145.31;5052247;28;51159;-47
2022/10/25 03:13:33;;;;;;;;;9.50;7.50;;;;;29.81;100.00;101160.41;5059151;28;51085;-45
2022/10/25 03:16:17;;;;;;;;;9.00;8.00;;;;;29.78;100.00;101155.16;5056873;28;51046;-46
2022/10/25 03:19:02;;;;;;;;;8.00;7.50;;;;;29.79;100.00;101154.16;5058841;28;51279;-47
2022/10/25 03:21:46;;;;;;;;;9.75;7.25;;;;;29.79;100.00;101151.41;5058964;28;51164;-46
2022/10/25 03:24:31;;;;;;;;;9.00;7.50;;;;;29.79;100.00;101156.03;5059333;28;51383;-47
2022/10/25 03:27:16;;;;;;;;;12.50;8.75;;;;;29.77;100.00;101152.53;5058483;28;51060;-46
2022/10/25 03:30:01;;;;;;;;;11.75;9.00;;;;;29.76;100.00;101159.88;5058571;28;51074;-45
2022/10/25 03:32:45;;;;;;;;;8.75;7.00;;;;;29.76;100.00;101162.63;5058088;28;51510;-46
2022/10/25 03:35:30;;;;;;;;;9.00;5.00;;;;;29.75;100.00;101152.63;5058418;28;51098;-46
2022/10/25 03:38:14;;;;;;;;;11.75;6.50;;;;;29.73;100.00;101146.44;5058746;28;51165;-45
2022/10/25 03:40:59;;;;;;;;;10.50;10.00;;;;;29.68;100.00;101154.13;5056132;28;51178;-45
2022/10/25 03:43:43;;;;;;;;;9.75;9.25;;;;;29.69;100.00;101156.72;5057885;28;51330;-45
2022/10/25 03:46:27;;;;;;;;;13.75;10.25;;;;;29.70;100.00;101157.63;5057881;28;51085;-45
2022/10/25 03:49:12;;;;;;;;;11.50;8.50;;;;;29.64;100.00;101136.16;5051313;28;51354;-46
2022/10/25 03:51:56;;;;;;;;;8.75;7.50;;;;;29.66;100.00;101145.13;5057839;28;51053;-47
2022/10/25 03:54:41;;;;;;;;;12.25;8.75;;;;;29.66;100.00;101148.78;5059856;28;51172;-46
2022/10/25 03:57:26;;;;;;;;;14.50;9.50;;;;;29.59;100.00;101142.00;5056467;28;51165;-46
2022/10/25 04:00:11;;;;;;;;;11.50;11.50;;;;;29.69;100.00;101156.72;5058308;28;51193;-45
2022/10/25 04:02:58;;;;;;;;;14.50;11.50;;;;;29.69;100.00;101162.22;5056706;28;51424;-46
2022/10/25 04:05:42;;;;;;;;;11.00;9.00;;;;;29.71;100.00;101161.22;5060497;28;51889;-45
2022/10/25 04:08:27;;;;;;;;;14.00;7.75;;;;;29.69;100.00;101153.13;5059016;28;51550;-45
2022/10/25 04:11:11;;;;;;;;;11.50;9.00;;;;;29.69;100.00;101166.84;5059832;28;51339;-46
2022/10/25 04:13:55;;;;;;;;;11.75;8.25;;;;;29.71;100.00;101173.09;5059337;28;51227;-46
2022/10/25 04:16:39;;;;;;;;;8.75;8.75;;;;;29.66;100.00;101178.94;5059254;28;51221;-46
2022/10/25 04:19:24;;;;;;;;;14.00;10.50;;;;;29.68;100.00;101178.81;5059964;28;51576;-46
2022/10/25 04:22:11;;;;;;;;;13.00;9.50;;;;;29.66;100.00;101184.41;5062149;28;51430;-46
2022/10/25 04:24:55;;;;;;;;;8.75;7.25;;;;;29.68;100.00;101185.16;5059680;28;51017;-45
2022/10/25 04:27:40;;;;;;;;;14.75;10.00;;;;;29.67;100.00;101179.78;5054916;28;51392;-46
2022/10/25 04:30:24;;;;;;;;;13.25;8.75;;;;;29.67;100.00;101188.91;5060525;27;51191;-47
2022/10/25 04:33:09;;;;;;;;;14.25;9.75;;;;;29.67;100.00;101183.44;5062520;28;51540;-45
2022/10/25 04:35:57;;;;;;;;;15.75;11.50;;;;;29.66;100.00;101178.94;5055753;28;51176;-46
2022/10/25 04:38:41;;;;;;;;;16.00;13.00;;;;;29.69;100.00;101186.91;5052811;28;51399;-47
2022/10/25 04:41:26;;;;;;;;;15.75;10.00;;;;;29.68;100.00;101187.03;5060072;28;51208;-48
2022/10/25 04:44:10;;;;;;;;;14.75;11.75;;;;;29.69;100.00;101183.28;5061068;28;51897;-48
2022/10/25 04:46:55;;;;;;;;;12.50;9.25;;;;;29.68;100.00;101189.78;5061834;28;51957;-46
2022/10/25 04:49:39;;;;;;;;;16.00;11.50;;;;;29.65;100.00;101185.41;5061329;28;51196;-48
2022/10/25 04:52:24;;;;;;;;;12.50;10.00;;;;;29.65;100.00;101188.16;5060932;28;51105;-49
2022/10/25 04:55:08;;;;;;;;;13.25;12.25;;;;;29.64;100.00;101191.00;5055271;28;51161;-47
2022/10/25 04:57:52;;;;;;;;;15.75;11.25;;;;;29.60;100.00;101184.88;5060798;28;51065;-46
2022/10/25 05:00:37;;;;;;;;;14.25;9.25;;;;;29.69;100.00;101197.00;5057664;27;51109;-46
2022/10/25 05:03:21;;;;;;;;;11.25;9.25;;;;;29.65;100.00;101187.25;5054856;28;51496;-48
2022/10/25 05:06:10;;;;;;;;;10.25;8.50;;;;;29.71;100.00;101203.25;5060586;28;51156;-45
2022/10/25 05:08:54;;;;;;;;;11.50;10.00;;;;;29.69;100.00;101199.75;5060505;28;51082;-46
2022/10/25 05:11:39;;;;;;;;;11.00;9.75;;;;;29.69;100.00;101200.59;5060715;27;51542;-46
2022/10/25 05:14:23;;;;;;;;;12.25;8.50;;;;;29.68;100.00;101198.00;5054019;28;51227;-45
2022/10/25 05:17:08;;;;;;;;;14.00;10.75;;;;;29.69;100.00;101207.97;5061017;28;51351;-49
2022/10/25 05:19:52;;;;;;;;;12.00;7.00;;;;;29.69;100.00;101216.19;5062036;28;51197;-45
2022/10/25 05:22:37;;;;;;;;;13.50;10.00;;;;;29.70;100.00;101223.44;5051171;28;51409;-46
2022/10/25 05:25:21;;;;;;;;;17.75;12.75;;;;;29.69;100.00;101211.59;5061604;27;51221;-46
2022/10/25 05:28:05;;;;;;;;;13.75;9.50;;;;;29.69;100.00;101218.94;5060593;28;51091;-48
2022/10/25 05:30:50;;;;;;;;;9.50;9.25;;;;;29.64;100.00;101221.16;5058557;28;51105;-46
2022/10/25 05:33:34;;;;;;;;;10.75;9.25;;;;;29.68;100.00;101225.41;5057035;28;51113;-46
2022/10/25 05:36:19;;;;;;;;;11.00;9.50;;;;;29.71;100.00;101230.69;5059164;28;51578;-48
2022/10/25 05:39:04;;;;;;;;;5.50;3.75;;;;;29.75;100.00;101221.19;5059676;28;51214;-48
2022/10/25 05:41:51;;;;;;;;;15.00;9.00;;;;;29.86;100.00;101224.97;5058862;28;51429;-46
2022/10/25 05:44:35;;;;;;;;;10.25;9.75;;;;;29.92;100.00;101221.78;5061370;28;51166;-48
2022/10/25 05:47:20;;;;;;;;;15.00;10.50;;;;;29.98;100.00;101215.81;5059695;28;51125;-46
2022/10/25 05:50:04;;;;;;;;;11.50;10.50;;;;;30.04;100.00;101228.19;5060312;28;51981;-49
2022/10/25 05:52:49;;;;;;;;;14.75;9.00;;;;;30.07;100.00;101237.03;5060562;28;51485;-47
2022/10/25 05:55:33;;;;;;;;;12.50;9.75;;;;;30.10;100.00;101242.31;5058547;27;51169;-46
2022/10/25 05:58:18;;;;;;;;;9.25;5.75;;;;;30.12;100.00;101267.75;5059658;28;51091;-46
2022/10/25 06:01:02;;;;;;;;;8.75;8.25;;;;;30.14;100.00;101270.38;5059998;28;51155;-48
2022/10/25 06:03:48;;;;;;;;;16.25;9.75;;;;;30.19;100.00;101270.00;5054794;28;51247;-49
2022/10/25 06:06:33;;;;;;;;;9.75;8.50;;;;;30.27;100.00;101270.25;5059939;28;51243;-48
2022/10/25 06:09:17;;;;;;;;;10.50;9.00;;;;;30.29;100.00;101265.53;5058221;28;51126;-45
2022/10/25 06:12:01;;;;;;;;;10.75;7.50;;;;;30.37;100.00;101265.78;5058308;28;51121;-50
2022/10/25 06:14:46;;;;;;;;;14.25;8.50;;;;;30.45;100.00;101274.31;5057044;28;51143;-45
2022/10/25 06:17:30;;;;;;;;;11.50;8.50;;;;;30.50;100.00;101270.31;5055324;28;51066;-48
2022/10/25 06:20:15;;;;;;;;;15.00;11.00;;;;;30.64;100.00;101288.44;5058387;28;51460;-45
2022/10/25 06:22:59;;;;;;;;;18.75;10.50;;;;;30.71;100.00;101289.72;5060173;28;51118;-48
2022/10/25 06:25:44;;;;;;;;;11.75;10.25;;;;;30.78;100.00;101293.72;5057115;28;51581;-46
2022/10/25 06:28:29;;;;;;;;;11.75;9.75;;;;;30.83;100.00;101296.09;5060266;28;51182;-46
2022/10/25 06:31:16;;;;;;;;;8.50;7.00;;;;;30.93;100.00;101302.59;5059195;28;51565;-47
2022/10/25 06:34:01;;;;;;;;;10.50;9.25;;;;;31.01;100.00;101305.56;5057436;28;51101;-46
2022/10/25 06:36:46;;;;;;;;;11.75;9.25;;;;;31.09;100.00;101298.59;5056862;28;51208;-46
2022/10/25 06:39:30;;;;;;;;;11.75;10.25;;;;;31.19;100.00;101299.63;5060095;28;51045;-47
2022/10/25 06:42:15;;;;;;;;;11.25;9.00;;;;;31.30;100.00;101304.22;5060441;28;51143;-45
2022/10/25 06:44:59;;;;;;;;;14.50;9.25;;;;;31.35;100.00;101313.81;5059871;28;51634;-50
2022/10/25 06:47:45;;;;;;;;;10.75;9.50;;;;;31.48;100.00;101313.66;5053675;28;51201;-47
2022/10/25 06:50:30;;;;;;;;;11.50;10.00;;;;;31.59;100.00;101320.16;5059338;28;51448;-48
2022/10/25 06:53:14;;;;;;;;;16.25;11.50;;;;;31.72;100.00;101328.28;5057636;28;51258;-47
2022/10/25 06:56:03;;;;;;;;;38.25;31.75;;;;;31.79;100.00;101335.91;5053750;28;51291;-47
2022/10/25 06:58:48;;;;;;;;;57.00;44.75;;;;;31.84;100.00;101335.50;5050724;28;51278;-47
2022/10/25 07:01:32;;;;;;;;;19.75;16.75;;;;;31.87;100.00;101339.88;5055342;28;52363;-45
2022/10/25 07:04:17;;;;;;;;;16.75;14.00;;;;;32.00;100.00;101343.31;5059000;28;51183;-51
2022/10/25 07:07:01;;;;;;;;;13.25;11.50;;;;;32.15;100.00;101338.38;5059720;28;51309;-50
2022/10/25 07:09:45;;;;;;;;;16.25;14.00;;;;;32.36;100.00;101341.16;5056828;28;51137;-48
2022/10/25 07:12:36;;;;;;;;;16.00;13.50;;;;;32.54;100.00;101343.34;5055116;28;51128;-49
2022/10/25 07:15:23;;;;;;;;;13.25;11.75;;;;;32.61;100.00;101320.59;5058573;28;51620;-46
2022/10/25 07:18:08;;;;;;;;;16.00;9.75;;;;;32.94;100.00;101342.56;5058752;28;51098;-48
2022/10/25 07:21:04;;;;;;;;;10.00;8.00;;;;;33.00;100.00;101344.75;5055634;28;51332;-49
2022/10/25 07:23:49;;;;;;;;;7.25;6.75;;;;;32.99;100.00;101345.78;5056255;28;50999;-46
2022/10/25 07:26:34;;;;;;;;;10.00;8.50;;;;;32.97;100.00;101344.16;5059247;28;51447;-51
2022/10/25 07:29:18;;;;;;;;;8.25;8.25;;;;;32.97;100.00;101324.88;5058711;28;51064;-48
2022/10/25 07:32:03;;;;;;;;;9.00;7.75;;;;;33.02;100.00;101340.00;5054775;28;51462;-48
2022/10/25 07:34:47;;;;;;;;;17.75;10.75;;;;;33.02;100.00;101337.22;5057997;28;51117;-46
2022/10/25 07:37:31;;;;;;;;;10.75;8.50;;;;;32.95;100.00;101335.16;5059288;28;50999;-46
2022/10/25 07:40:16;;;;;;;;;17.00;13.25;;;;;32.87;100.00;101336.72;5058864;28;51492;-46
2022/10/25 07:43:00;;;;;;;;;16.50;14.75;;;;;32.76;100.00;101347.81;5056166;28;51161;-46
2022/10/25 07:45:45;;;;;;;;;20.50;16.50;;;;;32.64;100.00;101343.38;5057803;28;51110;-49
2022/10/25 07:48:29;;;;;;;;;15.50;14.25;;;;;32.65;100.00;101356.16;5055803;28;51136;-47
2022/10/25 07:51:15;;;;;;;;;14.25;12.25;;;;;32.52;100.00;101359.97;5055552;28;51562;-46
2022/10/25 07:54:00;;;;;;;;;14.75;13.25;;;;;32.41;100.00;101363.69;5056294;28;51308;-48
2022/10/25 07:56:44;;;;;;;;;14.75;12.00;;;;;32.34;100.00;101378.09;5054932;28;51409;-46
2022/10/25 07:59:28;;;;;;;;;12.25;10.75;;;;;32.23;100.00;101399.16;5058670;28;51094;-47
2022/10/25 08:02:13;;;;;;;;;16.25;14.25;;;;;32.11;100.00;101401.09;5057609;28;51159;-48
2022/10/25 08:04:58;;;;;;;;;12.00;11.25;;;;;32.05;100.00;101411.75;5055482;28;51527;-47
2022/10/25 08:07:42;;;;;;;;;13.50;10.50;;;;;31.95;100.00;101404.25;5054270;28;51225;-47
2022/10/25 08:10:27;;;;;;;;;12.00;9.00;;;;;31.90;100.00;101411.16;5057225;28;51151;-45
2022/10/25 08:13:11;;;;;;;;;12.75;11.75;;;;;31.81;100.00;101410.03;5055844;28;51142;-45
2022/10/25 08:15:56;;;;;;;;;13.75;13.75;;;;;31.75;100.00;101405.06;5056286;28;51553;-48
2022/10/25 08:18:42;;;;;;;;;14.25;11.75;;;;;31.66;100.00;101398.41;5056640;28;51003;-45
2022/10/25 08:21:27;;;;;;;;;17.50;15.25;;;;;31.69;100.00;101403.69;5048184;28;51861;-46
2022/10/25 13:27:23;;;;;;;;;8.00;5.00;;;;;;;;149751;32;130560306;-46
2022/10/25 13:31:04;;;;;;;;;;;;;;;;;;3;84792116;102048100;-45
2022/10/25 13:34:21;;;;;;;;;2.00;2.00;;;;;;;;70497;27;139561715;-46
2022/10/25 13:37:25;;;;;;;;;7.50;7.50;;;;;;;;2317928;27;11261838;-46
2022/10/25 13:44:11;;;;;;;;;;;;;;;;;;3;116305605;139561513;-47
2022/10/25 13:46:55;;;;;;;;;6.75;6.00;;;;;;;;2064457;27;9761042;-44
2022/10/25 13:49:48;;;;;;;;;;;;;;;;;;140920;28;53279554;-46
2022/10/25 13:52:44;;;;;;;;;9.50;7.00;;;;;;;;228359;28;39023084;-44
2022/10/25 13:55:37;;;;;;;;;4.00;4.00;;;;;;;;177135;27;80288644;-45
2022/10/25 13:58:27;;;;;;;;;6.33;5.67;;;;;;;;592280;27;50126572;-46
2022/10/25 14:01:14;;;;;;;;;4.00;4.00;;;;;;;;1394360;27;18765853;-44
2022/10/25 14:04:18;;;;;;;;;1.50;1.50;;;;;;;;17395;27;42772900;-45
2022/10/25 14:07:21;;;;;;;;;6.75;6.75;;;;;;;;3261413;27;11259870;-42
2022/10/25 14:10:11;;;;;;;;;20.00;19.00;;;;;;;;2344851;27;17264606;-44
2022/10/25 14:13:21;;;;;;;;;10.50;4.50;;;;;;;;1613473;27;15762877;-44
2022/10/25 14:18:11;;;;;;;;;;;;;;;;;;247877;27;119306415;-43
2022/10/25 14:20:58;;;;;;;;;11.00;8.75;;;;;;;;3321752;27;18016639;-43
2022/10/25 14:23:42;;;;;;;;;5.25;3.00;;;;;;;;5030058;27;2257442;-43
2022/10/25 14:26:26;;;;;;;;;8.25;6.50;;;;;;;;5113525;27;8802;-42
2022/10/25 14:29:13;;;;;;;;;8.25;7.00;;;;;;;;5114372;27;8767;-43
2022/10/25 14:31:57;;;;;;;;;10.75;7.00;;;;;;;;5103603;27;8811;-43
2022/10/25 14:34:47;;;;;;;;;5.50;4.50;;;;;;;;5101840;27;8779;-42
2022/10/25 14:41:16;;;;;;;;;;;;;;;;;;3;95292205;117060300;-43
2022/10/25 14:48:09;;;;;;;;;2.00;2.00;;;;;;;;3;117056098;139563876;-44
2022/10/25 14:55:01;;;;;;;;;2.00;2.00;;;;;;;;3;117055525;157575686;-42
2022/10/25 15:01:56;;;;;;;;;3.50;3.50;;;;;;;;3;130571515;139561658;-42
2022/10/25 15:06:50;;;;;;;;;;;;;;;;;;2;157568452;157568452;-43
2022/10/25 15:13:39;;;;;;;;;4.00;4.00;;;;;;;;3;130574750;139565128;-43
2022/10/25 15:18:33;;;;;;;;;;;;;;;;;;2;157569982;157569982;-42
2022/10/25 15:25:23;;;;;;;;;2.50;2.50;;;;;;;;3;130574378;139562434;-42
2022/10/25 15:30:16;;;;;;;;;;;;;;;;;;2;157570106;157570106;-42
2022/10/25 15:37:02;;;;;;;;;4.00;4.00;;;;;;;;3;130575320;139563111;-42
2022/10/25 15:41:56;;;;;;;;;;;;;;;;;;2;157571145;157571145;-43
2022/10/25 15:48:44;;;;;;;;;7.50;7.50;;;;;;;;3;130574806;139568055;-44
2022/10/25 15:53:38;;;;;;;;;;;;;;;;;;2;157572586;157572586;-44
2022/10/25 16:00:25;;;;;;;;;4.00;2.00;;;;;;;;3;130571152;139563397;-43
2022/10/25 16:05:18;;;;;;;;;;;;;;;;;;2;157570543;157570543;-42
2022/10/25 16:12:07;;;;;;;;;6.50;6.50;;;;;;;;3;130571120;139561128;-43
2022/10/25 16:17:01;;;;;;;;;;;;;;;;;;2;157573385;157573385;-43
2022/10/25 16:23:47;;;;;;;;;1.00;1.00;;;;;;;;3;130575688;139561466;-43
2022/10/25 16:28:41;;;;;;;;;;;;;;;;;;2;157570124;157570124;-44
2022/10/25 16:35:27;;;;;;;;;6.50;2.50;;;;;;;;3;130574450;139564627;-43
2022/10/25 16:40:22;;;;;;;;;;;;;;;;;;2;157572533;157572533;-42
2022/10/25 16:47:08;;;;;;;;;5.50;5.50;;;;;;;;3;130570946;139562882;-42
2022/10/25 16:52:04;;;;;;;;;;;;;;;;;;2;157572410;157572410;-43
2022/10/25 16:58:50;;;;;;;;;14.50;2.50;;;;;;;;3;130575640;139564233;-43
2022/10/25 17:03:46;;;;;;;;;;;;;;;;;;2;157569392;157569392;-43
2022/10/25 17:10:32;;;;;;;;;6.50;6.50;;;;;;;;3;130575923;139567699;-43
2022/10/25 17:15:26;;;;;;;;;;;;;;;;;;2;157569724;157569724;-43
2022/10/25 17:22:13;;;;;;;;;6.00;6.00;;;;;;;;3;130576901;139562658;-42
2022/10/25 17:27:06;;;;;;;;;;;;;;;;;;2;157572749;157572749;-42
2022/10/25 17:33:53;;;;;;;;;6.50;6.50;;;;;;;;3;130572810;139563685;-46
2022/10/25 17:38:47;;;;;;;;;;;;;;;;;;2;157571677;157571677;-43
2022/10/25 17:45:33;;;;;;;;;19.00;15.00;;;;;;;;3;130573346;139562699;-43
2022/10/25 17:50:27;;;;;;;;;;;;;;;;;;2;157572448;157572448;-42
2022/10/25 17:57:14;;;;;;;;;10.50;10.50;;;;;;;;3;130576761;139562830;-43
2022/10/25 18:02:07;;;;;;;;;;;;;;;;;;2;157569769;157569769;-43
2022/10/25 18:08:55;;;;;;;;;14.50;12.00;;;;;;;;3;130573049;139563307;-43
2022/10/25 18:13:49;;;;;;;;;;;;;;;;;;2;157568935;157568935;-43
2022/10/25 18:20:39;;;;;;;;;12.00;12.00;;;;;;;;3;130572509;139563003;-43
2022/10/25 18:25:33;;;;;;;;;;;;;;;;;;2;157571919;157571919;-44
2022/10/25 18:32:26;;;;;;;;;18.00;16.50;;;;;;;;3;130570684;139561897;-43
2022/10/25 18:37:19;;;;;;;;;;;;;;;;;;2;157572240;157572240;-45
2022/10/25 18:44:05;;;;;;;;;23.50;19.50;;;;;;;;3;130574513;139561631;-43
2022/10/25 18:48:59;;;;;;;;;;;;;;;;;;2;157570994;157570994;-45
2022/10/25 18:55:59;;;;;;;;;24.00;24.00;;;;;;;;3;130573190;139561481;-43
2022/10/25 19:02:52;;;;;;;;;;;;;;;;;;3;117055662;157570356;-44
2022/10/25 19:09:39;;;;;;;;;64.00;50.00;;;;;;;;3;130573574;139562996;-43
2022/10/25 19:14:33;;;;;;;;;;;;;;;;;;2;157571663;157571663;-45
2022/10/25 19:21:19;;;;;;;;;75.50;53.50;;;;;;;;3;130573084;139565397;-44
2022/10/25 19:26:13;;;;;;;;;;;;;;;;;;2;157572371;157572371;-44
2022/10/25 19:32:59;;;;;;;;;55.00;35.50;;;;;;;;3;130571910;139562339;-44
2022/10/25 19:37:53;;;;;;;;;;;;;;;;;;2;157568584;157568584;-44
2022/10/25 19:44:39;;;;;;;;;23.00;23.00;;;;;;;;3;130573598;139561269;-44
2022/10/25 19:49:33;;;;;;;;;;;;;;;;;;2;157569355;157569355;-44
2022/10/25 19:56:20;;;;;;;;;69.00;61.00;;;;;;;;3;130572430;139564194;-44
2022/10/25 19:59:09;;;;;;;;;;;;;;;;;;2;149622825;149622825;-45
2022/10/25 20:04:41;;;;;;;;;72.50;53.50;;;;;;;;175165;28;117051636;-44
2022/10/25 20:11:30;;;;;;;;;68.50;55.00;;;;;;;;3;117054036;139566602;-43
2022/10/25 20:18:22;;;;;;;;;69.50;60.50;;;;;;;;3;117055554;157574350;-44
2022/10/25 20:25:08;;;;;;;;;73.50;67.00;;;;;;;;3;130575991;139563679;-45
2022/10/25 20:30:02;;;;;;;;;;;;;;;;;;2;157570460;157570460;-44
2022/10/25 20:36:48;;;;;;;;;76.00;65.00;;;;;;;;3;130572066;139563857;-44
2022/10/25 20:41:42;;;;;;;;;;;;;;;;;;2;157569273;157569273;-44
2022/10/25 20:48:29;;;;;;;;;66.50;56.50;;;;;;;;3;130573104;139566147;-45
2022/10/25 20:53:23;;;;;;;;;;;;;;;;;;2;157571719;157571719;-45
2022/10/25 21:48:37;;;;;;;;;65.50;52.75;;;;;;;;4387805;32;13414;-42
2022/10/25 21:51:23;;;;;;;;;64.00;50.75;;;;;;;;5145511;27;8805;-45
2022/10/25 21:54:07;;;;;;;;;66.50;52.75;;;;;;;;5155768;27;8778;-42
2022/10/25 21:56:51;;;;;;;;;66.75;51.50;;;;;;;;5142383;27;9547;-42
2022/10/25 21:59:36;;;;;;;;;65.25;51.00;;;;;;;;5134582;27;8800;-43
2022/10/25 22:02:20;;;;;;;;;63.75;49.25;;;;;;;;5144773;27;8790;-42
2022/10/25 22:05:04;;;;;;;;;59.75;48.75;;;;;;;;5155622;27;8793;-44
2022/10/25 22:07:49;;;;;;;;;63.00;50.25;;;;;;;;5141389;27;8797;-43
2022/10/25 22:10:33;;;;;;;;;66.50;52.00;;;;;;;;5146309;27;8794;-42
2022/10/25 22:13:18;;;;;;;;;67.00;53.00;;;;;;;;5155341;27;8798;-42
2022/10/25 22:16:05;;;;;;;;;63.50;51.25;;;;;;;;5155464;27;8813;-42
2022/10/25 22:18:52;;;;;;;;;63.50;49.50;;;;;;;;5155440;27;8920;-42
2022/10/25 22:21:37;;;;;;;;;66.00;50.75;;;;;;;;5155005;27;8801;-42
2022/10/25 22:24:21;;;;;;;;;69.25;52.75;;;;;;;;5155214;27;9602;-44
2022/10/25 22:27:05;;;;;;;;;61.50;49.25;;;;;;;;5155297;27;8797;-42
2022/10/25 22:29:50;;;;;;;;;74.50;60.25;;;;;;;;5155210;27;8794;-43
2022/10/25 22:32:34;;;;;;;;;73.50;60.75;;;;;;;;5154850;27;8782;-43
2022/10/25 22:35:19;;;;;;;;;69.75;55.75;;;;;;;;5130980;27;8923;-43
2022/10/25 22:38:03;;;;;;;;;71.75;58.25;;;;;;;;5142756;27;8808;-43
2022/10/25 22:40:58;;;;;;;;;73.50;62.75;;;;;;;;5151609;27;8786;-42
2022/10/25 22:43:43;;;;;;;;;73.50;58.25;;;;;;;;5152585;27;8778;-43
2022/10/25 22:46:32;;;;;;;;;69.25;56.00;;;;;;;;5154314;27;8794;-44
2022/10/25 22:49:18;;;;;;;;;67.00;51.75;;;;;;;;5142011;27;8782;-43
2022/10/25 22:52:02;;;;;;;;;60.00;49.25;;;;;;;;5140518;27;8797;-43
2022/10/25 22:54:50;;;;;;;;;61.00;50.25;;;;;;;;5140312;27;8924;-44
2022/10/25 22:57:35;;;;;;;;;66.50;50.75;;;;;;;;5139394;27;8802;-42
2022/10/25 23:00:19;;;;;;;;;65.00;48.50;;;;;;;;5137641;27;8790;-43
2022/10/25 23:03:04;;;;;;;;;61.00;48.50;;;;;;;;5117649;27;8781;-43
2022/10/25 23:05:55;;;;;;;;;61.75;47.75;;;;;;;;5118386;27;8781;-43
2022/10/25 23:08:39;;;;;;;;;57.50;44.25;;;;;;;;5119438;27;8773;-44
2022/10/25 23:11:25;;;;;;;;;57.75;47.50;;;;;;;;5119394;27;8785;-43
2022/10/25 23:14:09;;;;;;;;;62.00;50.00;;;;;;;;5118831;27;8781;-44
2022/10/25 23:16:53;;;;;;;;;62.00;46.25;;;;;;;;5118811;27;8797;-43